createdAt,value
2022-10-16T00:00:50.750Z,98631.00
2022-10-16T00:01:54.808Z,98637.88
2022-10-16T00:02:57.814Z,98641.31
2022-10-16T00:04:03.878Z,98638.84
2022-10-16T00:05:07.195Z,98644.09
2022-10-16T00:06:12.144Z,98637.19
2022-10-16T00:07:16.043Z,98638.03
2022-10-16T00:08:19.023Z,98643.94
2022-10-16T00:09:23.005Z,98643.00
2022-10-16T00:10:26.386Z,98643.81
2022-10-16T00:11:34.430Z,98639.16
2022-10-16T00:12:37.362Z,98640.00
2022-10-16T00:13:44.283Z,98644.09
2022-10-16T00:14:47.232Z,98645.91
2022-10-16T00:15:51.153Z,98643.28
2022-10-16T00:16:54.167Z,98644.78
2022-10-16T00:17:58.128Z,98648.09
2022-10-16T00:19:01.077Z,98647.97
2022-10-16T00:20:09.067Z,98646.00
2022-10-16T00:21:14.405Z,98649.19
2022-10-16T00:22:18.355Z,98649.03
2022-10-16T00:23:21.749Z,98655.78
2022-10-16T00:24:25.786Z,98654.69
2022-10-16T00:27:08.116Z,98655.22
2022-10-16T00:28:30.693Z,98658.41
2022-10-16T00:29:35.618Z,98651.38
2022-10-16T00:30:40.894Z,98642.53
2022-10-16T00:31:44.907Z,98649.56
2022-10-16T00:32:47.984Z,98646.97
2022-10-16T00:33:52.607Z,98652.03
2022-10-16T00:34:55.916Z,98658.09
2022-10-16T00:36:01.385Z,98652.88
2022-10-16T00:37:04.685Z,98653.72
2022-10-16T00:38:08.963Z,98657.16
2022-10-16T00:39:11.894Z,98656.03
2022-10-16T00:40:16.756Z,98655.88
2022-10-16T00:41:19.794Z,98656.75
2022-10-16T00:42:25.090Z,98653.28
2022-10-16T00:43:38.194Z,98649.84
2022-10-16T00:44:49.694Z,98654.53
2022-10-16T00:45:52.670Z,98650.41
2022-10-16T00:46:56.954Z,98657.59
2022-10-16T00:47:59.937Z,98646.56
2022-10-16T00:49:06.985Z,98652.91
2022-10-16T00:50:12.876Z,98647.94
2022-10-16T00:51:17.284Z,98642.84
2022-10-16T00:52:20.916Z,98646.72
2022-10-16T00:53:25.026Z,98649.75
2022-10-16T00:54:29.749Z,98652.78
2022-10-16T00:55:35.011Z,98652.94
2022-10-16T00:56:39.557Z,98654.13
2022-10-16T00:57:44.629Z,98652.63
2022-10-16T00:58:47.816Z,98654.53
2022-10-16T00:59:53.697Z,98660.91
2022-10-16T01:00:57.361Z,98654.13
2022-10-16T01:02:02.334Z,98655.09
2022-10-16T01:03:25.887Z,98649.47
2022-10-16T01:04:32.379Z,98652.34
2022-10-16T01:05:42.022Z,98660.19
2022-10-16T01:06:48.104Z,98657.72
2022-10-16T01:07:57.705Z,98661.44
2022-10-16T01:09:09.242Z,98659.78
2022-10-16T01:10:20.234Z,98658.94
2022-10-16T01:11:28.857Z,98659.91
2022-10-16T01:12:39.163Z,98666.94
2022-10-16T01:13:49.416Z,98659.25
2022-10-16T01:14:56.018Z,98665.28
2022-10-16T01:16:05.678Z,98667.75
2022-10-16T01:17:12.903Z,98660.06
2022-10-16T01:18:20.934Z,98667.91
2022-10-16T01:19:33.763Z,98672.16
2022-10-16T01:20:40.866Z,98667.19
2022-10-16T01:21:45.436Z,98662.81
2022-10-16T01:23:01.728Z,98665.28
2022-10-16T01:24:10.366Z,98664.47
2022-10-16T01:25:21.157Z,98665.28
2022-10-16T01:26:37.367Z,98665.16
2022-10-16T01:27:43.575Z,98665.28
2022-10-16T01:28:50.922Z,98668.59
2022-10-16T01:29:56.759Z,98666.69
2022-10-16T01:31:00.446Z,98664.06
2022-10-16T01:32:11.814Z,98673.56
2022-10-16T01:33:18.636Z,98675.19
2022-10-16T01:34:25.956Z,98669.00
2022-10-16T01:35:31.845Z,98672.44
2022-10-16T01:36:39.735Z,98664.75
2022-10-16T01:37:48.117Z,98675.06
2022-10-16T01:38:54.544Z,98668.31
2022-10-16T01:40:00.438Z,98667.63
2022-10-16T01:41:07.386Z,98670.22
2022-10-16T01:42:14.608Z,98664.31
2022-10-16T01:43:22.678Z,98667.09
2022-10-16T01:44:27.985Z,98668.06
2022-10-16T01:45:32.958Z,98661.97
2022-10-16T01:46:37.906Z,98662.94
2022-10-16T01:47:42.288Z,98669.97
2022-10-16T01:48:45.278Z,98662.25
2022-10-16T01:49:49.434Z,98664.16
2022-10-16T01:50:56.859Z,98663.34
2022-10-16T01:52:02.819Z,98668.72
2022-10-16T01:53:06.805Z,98662.81
2022-10-16T01:54:11.771Z,98666.38
2022-10-16T01:55:17.977Z,98664.03
2022-10-16T01:56:23.833Z,98673.13
2022-10-16T01:57:29.558Z,98670.75
2022-10-16T01:58:37.006Z,98673.66
2022-10-16T01:59:43.626Z,98669.41
2022-10-16T02:00:49.405Z,98674.75
2022-10-16T02:01:56.293Z,98664.56
2022-10-16T02:03:02.084Z,98665.53
2022-10-16T02:04:12.037Z,98669.09
2022-10-16T02:05:20.948Z,98669.22
2022-10-16T02:06:24.636Z,98668.56
2022-10-16T02:07:28.715Z,98670.47
2022-10-16T02:08:32.478Z,98673.34
2022-10-16T02:09:37.416Z,98672.66
2022-10-16T02:10:41.068Z,98667.69
2022-10-16T02:11:45.219Z,98679.94
2022-10-16T02:12:52.343Z,98680.88
2022-10-16T02:14:01.398Z,98675.78
2022-10-16T02:15:04.855Z,98673.31
2022-10-16T02:16:12.257Z,98680.19
2022-10-16T02:17:17.869Z,98682.13
2022-10-16T02:18:22.407Z,98676.19
2022-10-16T02:19:26.755Z,98677.97
2022-10-16T02:20:31.201Z,98674.81
2022-10-16T02:21:42.236Z,98687.19
2022-10-16T02:22:48.091Z,98684.00
2022-10-16T02:23:56.915Z,98688.69
2022-10-16T02:25:03.364Z,98695.94
2022-10-16T02:26:09.878Z,98691.25
2022-10-16T02:27:18.194Z,98695.06
2022-10-16T02:28:26.398Z,98697.00
2022-10-16T02:29:30.705Z,98692.84
2022-10-16T02:30:38.565Z,98694.63
2022-10-16T02:31:44.974Z,98693.13
2022-10-16T02:32:50.567Z,98697.63
2022-10-16T02:33:54.654Z,98697.78
2022-10-16T02:35:00.562Z,98695.31
2022-10-16T02:36:03.801Z,98689.50
2022-10-16T02:37:07.987Z,98698.31
2022-10-16T02:38:12.109Z,98699.38
2022-10-16T02:39:17.085Z,98696.09
2022-10-16T02:40:22.968Z,98692.88
2022-10-16T02:41:29.283Z,98692.31
2022-10-16T02:42:35.755Z,98693.41
2022-10-16T02:43:39.795Z,98686.66
2022-10-16T02:44:44.245Z,98687.75
2022-10-16T02:45:48.216Z,98691.44
2022-10-16T02:46:51.133Z,98695.38
2022-10-16T02:47:55.226Z,98687.09
2022-10-16T02:48:58.344Z,98692.56
2022-10-16T02:50:02.496Z,98691.03
2022-10-16T02:51:06.061Z,98688.81
2022-10-16T02:52:10.614Z,98693.72
2022-10-16T02:53:13.594Z,98693.25
2022-10-16T02:54:17.534Z,98688.56
2022-10-16T02:55:20.606Z,98689.88
2022-10-16T02:56:25.115Z,98686.09
2022-10-16T02:57:28.670Z,98687.56
2022-10-16T02:58:32.927Z,98694.94
2022-10-16T02:59:37.795Z,98689.41
2022-10-16T03:00:43.309Z,98683.88
2022-10-16T03:01:46.314Z,98683.50
2022-10-16T03:02:50.362Z,98697.88
2022-10-16T03:03:58.451Z,98688.53
2022-10-16T03:05:02.446Z,98696.72
2022-10-16T03:06:07.376Z,98694.34
2022-10-16T03:07:13.299Z,98691.88
2022-10-16T03:08:16.514Z,98692.91
2022-10-16T03:09:21.105Z,98690.56
2022-10-16T03:10:24.035Z,98698.53
2022-10-16T03:11:27.964Z,98699.72
2022-10-16T03:12:31.560Z,98699.94
2022-10-16T03:13:35.595Z,98701.94
2022-10-16T03:14:38.587Z,98702.34
2022-10-16T03:15:43.937Z,98703.41
2022-10-16T03:16:46.958Z,98714.03
2022-10-16T03:17:51.286Z,98702.22
2022-10-16T03:18:54.207Z,98705.06
2022-10-16T03:19:58.231Z,98707.31
2022-10-16T03:21:01.197Z,98715.38
2022-10-16T03:22:05.096Z,98712.19
2022-10-16T03:23:09.333Z,98717.75
2022-10-16T03:24:13.565Z,98714.53
2022-10-16T03:25:16.540Z,98718.19
2022-10-16T03:26:20.569Z,98715.03
2022-10-16T03:27:24.110Z,98718.66
2022-10-16T03:28:29.629Z,98719.03
2022-10-16T03:29:33.381Z,98719.28
2022-10-16T03:30:37.355Z,98717.84
2022-10-16T03:31:42.437Z,98713.81
2022-10-16T03:32:46.962Z,98718.53
2022-10-16T03:33:49.877Z,98719.00
2022-10-16T03:34:55.457Z,98715.06
2022-10-16T03:35:59.007Z,98724.03
2022-10-16T03:37:03.512Z,98724.38
2022-10-16T03:38:06.645Z,98728.25
2022-10-16T03:39:10.736Z,98726.94
2022-10-16T03:40:14.158Z,98728.13
2022-10-16T03:41:18.451Z,98729.19
2022-10-16T03:42:21.436Z,98726.81
2022-10-16T03:43:25.365Z,98727.97
2022-10-16T03:44:28.384Z,98722.28
2022-10-16T03:45:32.407Z,98725.13
2022-10-16T03:46:35.363Z,98724.63
2022-10-16T03:47:40.713Z,98731.94
2022-10-16T03:48:43.666Z,98732.13
2022-10-16T03:49:47.665Z,98722.94
2022-10-16T03:50:51.683Z,98730.00
2022-10-16T03:51:55.564Z,98733.75
2022-10-16T03:52:59.034Z,98732.09
2022-10-16T03:54:03.042Z,98738.34
2022-10-16T03:55:06.917Z,98731.72
2022-10-16T03:56:11.016Z,98734.44
2022-10-16T03:57:13.896Z,98738.78
2022-10-16T03:58:18.031Z,98739.72
2022-10-16T03:59:21.057Z,98737.25
2022-10-16T04:00:25.023Z,98739.22
2022-10-16T04:01:28.003Z,98735.09
2022-10-16T04:02:32.126Z,98736.94
2022-10-16T04:03:36.567Z,98738.72
2022-10-16T04:04:40.622Z,98735.41
2022-10-16T04:05:43.884Z,98732.94
2022-10-16T04:06:51.533Z,98733.03
2022-10-16T04:07:54.568Z,98740.00
2022-10-16T04:08:58.516Z,98740.94
2022-10-16T04:10:01.596Z,98742.81
2022-10-16T04:11:06.016Z,98745.63
2022-10-16T04:12:10.035Z,98735.34
2022-10-16T04:13:13.245Z,98735.44
2022-10-16T04:14:17.276Z,98740.75
2022-10-16T04:15:20.164Z,98742.63
2022-10-16T04:16:24.244Z,98741.91
2022-10-16T04:17:27.379Z,98741.06
2022-10-16T04:18:31.717Z,98741.19
2022-10-16T04:19:36.057Z,98739.63
2022-10-16T04:20:40.094Z,98737.25
2022-10-16T04:21:43.097Z,98739.97
2022-10-16T04:22:47.286Z,98745.38
2022-10-16T04:23:50.637Z,98745.38
2022-10-16T04:24:54.846Z,98741.13
2022-10-16T04:25:57.856Z,98737.78
2022-10-16T04:27:01.866Z,98740.38
2022-10-16T04:28:05.437Z,98742.16
2022-10-16T04:29:09.704Z,98741.44
2022-10-16T04:30:12.695Z,98740.63
2022-10-16T04:31:17.235Z,98740.63
2022-10-16T04:32:20.615Z,98742.25
2022-10-16T04:33:26.555Z,98737.19
2022-10-16T04:34:30.239Z,98745.81
2022-10-16T04:35:38.236Z,98746.50
2022-10-16T04:36:41.170Z,98749.13
2022-10-16T04:37:45.711Z,98745.56
2022-10-16T04:38:48.826Z,98747.25
2022-10-16T04:39:53.495Z,98742.88
2022-10-16T04:40:57.819Z,98744.53
2022-10-16T04:42:01.845Z,98741.00
2022-10-16T04:43:04.996Z,98740.19
2022-10-16T04:44:09.356Z,98739.34
2022-10-16T04:45:14.887Z,98737.59
2022-10-16T04:46:21.476Z,98734.16
2022-10-16T04:47:24.939Z,98734.28
2022-10-16T04:48:29.216Z,98738.53
2022-10-16T04:49:32.176Z,98741.22
2022-10-16T04:50:37.646Z,98736.13
2022-10-16T04:51:43.504Z,98750.88
2022-10-16T04:52:47.487Z,98739.47
2022-10-16T04:53:50.436Z,98737.47
2022-10-16T04:54:55.268Z,98736.50
2022-10-16T04:55:58.423Z,98741.50
2022-10-16T04:57:02.409Z,98736.19
2022-10-16T04:58:05.731Z,98741.31
2022-10-16T04:59:09.757Z,98726.31
2022-10-16T05:00:13.871Z,98737.44
2022-10-16T05:01:17.864Z,98740.53
2022-10-16T05:02:21.129Z,98735.94
2022-10-16T05:03:25.261Z,98747.91
2022-10-16T05:04:28.149Z,98745.31
2022-10-16T05:05:32.156Z,98742.59
2022-10-16T05:06:36.516Z,98745.81
2022-10-16T05:07:40.512Z,98751.00
2022-10-16T05:08:43.405Z,98750.88
2022-10-16T05:09:47.406Z,98745.56
2022-10-16T05:10:50.391Z,98745.38
2022-10-16T05:11:54.368Z,98748.66
2022-10-16T05:12:57.366Z,98749.41
2022-10-16T05:14:01.437Z,98741.38
2022-10-16T05:15:05.675Z,98743.66
2022-10-16T05:16:09.784Z,98742.72
2022-10-16T05:17:12.706Z,98750.28
2022-10-16T05:18:17.395Z,98749.47
2022-10-16T05:19:27.365Z,98752.06
2022-10-16T05:20:32.017Z,98755.47
2022-10-16T05:21:36.386Z,98751.94
2022-10-16T05:22:40.738Z,98749.97
2022-10-16T05:23:43.748Z,98750.56
2022-10-16T05:24:47.767Z,98754.72
2022-10-16T05:25:55.527Z,98744.22
2022-10-16T05:26:59.600Z,98754.50
2022-10-16T05:28:02.607Z,98753.22
2022-10-16T05:29:06.812Z,98762.56
2022-10-16T05:30:12.429Z,98765.88
2022-10-16T05:31:16.656Z,98760.56
2022-10-16T05:32:21.126Z,98769.94
2022-10-16T05:33:25.243Z,98769.38
2022-10-16T05:34:29.160Z,98769.41
2022-10-16T05:35:32.116Z,98773.81
2022-10-16T05:36:37.557Z,98774.59
2022-10-16T05:37:40.506Z,98769.41
2022-10-16T05:38:44.496Z,98774.03
2022-10-16T05:39:47.419Z,98776.19
2022-10-16T05:40:54.703Z,98777.59
2022-10-16T05:41:57.665Z,98776.56
2022-10-16T05:43:01.726Z,98774.66
2022-10-16T05:44:06.561Z,98786.63
2022-10-16T05:45:12.347Z,98783.06
2022-10-16T05:46:15.326Z,98789.09
2022-10-16T05:47:19.337Z,98795.97
2022-10-16T05:48:22.246Z,98787.09
2022-10-16T05:49:26.406Z,98791.34
2022-10-16T05:50:29.414Z,98796.34
2022-10-16T05:51:33.353Z,98804.72
2022-10-16T05:52:37.896Z,98800.94
2022-10-16T05:54:52.017Z,98805.69
2022-10-16T05:55:55.471Z,98812.31
2022-10-16T05:56:59.437Z,98809.59
2022-10-16T05:58:02.336Z,98806.78
2022-10-16T05:59:06.524Z,98804.88
2022-10-16T06:00:10.877Z,98807.38
2022-10-16T06:01:19.070Z,98813.97
2022-10-16T06:02:22.179Z,98818.97
2022-10-16T06:03:26.313Z,98813.53
2022-10-16T06:04:29.206Z,98811.50
2022-10-16T06:05:33.205Z,98811.03
2022-10-16T06:06:37.546Z,98816.59
2022-10-16T06:07:42.919Z,98813.50
2022-10-16T06:08:46.791Z,98821.66
2022-10-16T06:09:51.730Z,98824.66
2022-10-16T06:11:02.466Z,98824.97
2022-10-16T06:12:06.649Z,98815.59
2022-10-16T06:13:09.674Z,98829.56
2022-10-16T06:14:13.685Z,98821.81
2022-10-16T06:15:16.614Z,98817.16
2022-10-16T06:16:20.624Z,98820.19
2022-10-16T06:17:23.701Z,98824.91
2022-10-16T06:18:28.195Z,98826.25
2022-10-16T06:19:32.725Z,98826.19
2022-10-16T06:20:35.819Z,98831.47
2022-10-16T06:21:39.878Z,98830.81
2022-10-16T06:22:44.188Z,98828.50
2022-10-16T06:23:48.555Z,98837.50
2022-10-16T06:24:51.556Z,98836.31
2022-10-16T06:25:55.524Z,98843.63
2022-10-16T06:26:58.945Z,98846.66
2022-10-16T06:28:02.868Z,98846.84
2022-10-16T06:29:06.004Z,98840.56
2022-10-16T06:30:11.243Z,98840.09
2022-10-16T06:31:14.766Z,98849.34
2022-10-16T06:32:18.727Z,98848.16
2022-10-16T06:33:21.665Z,98847.66
2022-10-16T06:34:25.945Z,98852.66
2022-10-16T06:35:30.556Z,98844.69
2022-10-16T06:36:34.712Z,98850.47
2022-10-16T06:37:37.887Z,98847.00
2022-10-16T06:38:43.457Z,98857.22
2022-10-16T06:39:47.496Z,98845.78
2022-10-16T06:40:50.456Z,98853.50
2022-10-16T06:41:54.486Z,98853.47
2022-10-16T06:42:57.639Z,98852.63
2022-10-16T06:44:01.629Z,98852.88
2022-10-16T06:45:04.996Z,98855.91
2022-10-16T06:46:11.733Z,98852.88
2022-10-16T06:47:14.680Z,98858.50
2022-10-16T06:48:18.851Z,98861.66
2022-10-16T06:49:24.186Z,98861.97
2022-10-16T06:50:27.212Z,98861.53
2022-10-16T06:51:33.305Z,98866.88
2022-10-16T06:52:36.486Z,98866.03
2022-10-16T06:54:01.943Z,98862.94
2022-10-16T06:55:08.108Z,98863.13
2022-10-16T06:56:11.643Z,98863.59
2022-10-16T06:57:15.798Z,98869.16
2022-10-16T06:58:18.767Z,98873.75
2022-10-16T06:59:22.824Z,98870.78
2022-10-16T07:00:25.853Z,98872.94
2022-10-16T07:01:29.956Z,98874.19
2022-10-16T07:02:32.950Z,98871.31
2022-10-16T07:03:39.406Z,98880.09
2022-10-16T07:04:43.412Z,98874.75
2022-10-16T07:05:46.408Z,98873.50
2022-10-16T07:06:50.396Z,98873.41
2022-10-16T07:07:53.286Z,98880.22
2022-10-16T07:08:58.719Z,98871.22
2022-10-16T07:10:01.731Z,98877.38
2022-10-16T07:11:08.139Z,98869.66
2022-10-16T07:12:11.187Z,98876.78
2022-10-16T07:13:15.517Z,98870.94
2022-10-16T07:14:22.696Z,98873.09
2022-10-16T07:15:26.874Z,98867.34
2022-10-16T07:16:32.359Z,98876.41
2022-10-16T07:17:35.473Z,98867.72
2022-10-16T07:18:40.277Z,98865.94
2022-10-16T07:19:43.267Z,98871.38
2022-10-16T07:20:47.225Z,98868.78
2022-10-16T07:21:51.231Z,98865.19
2022-10-16T07:22:54.187Z,98866.00
2022-10-16T07:24:02.505Z,98865.22
2022-10-16T07:25:06.491Z,98870.13
2022-10-16T07:26:11.933Z,98868.16
2022-10-16T07:27:14.866Z,98862.09
2022-10-16T07:28:19.018Z,98866.72
2022-10-16T07:29:23.274Z,98870.19
2022-10-16T07:32:08.696Z,98866.06
2022-10-16T07:33:11.907Z,98872.16
2022-10-16T07:34:19.271Z,98869.53
2022-10-16T07:35:23.679Z,98877.63
2022-10-16T07:36:29.348Z,98876.97
2022-10-16T07:37:32.806Z,98873.50
2022-10-16T07:38:37.256Z,98876.28
2022-10-16T07:39:41.714Z,98868.56
2022-10-16T07:40:45.714Z,98872.19
2022-10-16T07:41:48.678Z,98874.16
2022-10-16T07:42:52.679Z,98877.94
2022-10-16T07:43:55.810Z,98880.72
2022-10-16T07:44:59.890Z,98880.72
2022-10-16T07:46:05.634Z,98883.22
2022-10-16T07:47:11.205Z,98881.09
2022-10-16T07:48:14.366Z,98884.19
2022-10-16T07:49:18.376Z,98895.25
2022-10-16T07:50:21.288Z,98898.22
2022-10-16T07:51:26.896Z,98880.56
2022-10-16T07:52:30.367Z,98898.53
2022-10-16T07:53:35.286Z,98894.41
2022-10-16T07:54:38.612Z,98886.84
2022-10-16T07:55:44.230Z,98893.25
2022-10-16T07:56:48.243Z,98887.31
2022-10-16T07:57:51.214Z,98888.63
2022-10-16T07:58:55.468Z,98884.47
2022-10-16T07:59:59.565Z,98885.47
2022-10-16T08:01:05.739Z,98893.53
2022-10-16T08:02:10.186Z,98889.41
2022-10-16T08:03:13.408Z,98881.47
2022-10-16T08:04:17.447Z,98892.81
2022-10-16T08:05:20.420Z,98883.38
2022-10-16T08:06:27.815Z,98888.16
2022-10-16T08:07:31.442Z,98896.59
2022-10-16T08:08:36.505Z,98897.09
2022-10-16T08:09:39.748Z,98895.09
2022-10-16T08:10:45.409Z,98893.91
2022-10-16T08:11:48.344Z,98902.00
2022-10-16T08:12:52.328Z,98909.59
2022-10-16T08:13:56.579Z,98901.31
2022-10-16T08:15:01.178Z,98904.63
2022-10-16T08:16:09.023Z,98906.44
2022-10-16T08:17:16.650Z,98903.00
2022-10-16T08:18:19.561Z,98901.31
2022-10-16T08:19:23.497Z,98901.31
2022-10-16T08:20:26.806Z,98904.13
2022-10-16T08:21:31.208Z,98907.97
2022-10-16T08:22:34.431Z,98905.00
2022-10-16T08:23:38.557Z,98900.34
2022-10-16T08:24:42.207Z,98907.00
2022-10-16T08:25:47.750Z,98904.50
2022-10-16T08:26:51.917Z,98910.97
2022-10-16T08:27:54.945Z,98909.31
2022-10-16T08:28:59.168Z,98909.47
2022-10-16T08:30:02.531Z,98910.47
2022-10-16T08:31:10.993Z,98909.66
2022-10-16T08:32:15.579Z,98916.25
2022-10-16T08:33:20.174Z,98912.28
2022-10-16T08:34:23.137Z,98913.25
2022-10-16T08:35:27.492Z,98911.56
2022-10-16T08:36:31.575Z,98913.56
2022-10-16T08:37:34.758Z,98909.41
2022-10-16T08:38:39.745Z,98918.28
2022-10-16T08:39:42.777Z,98911.97
2022-10-16T08:40:51.252Z,98913.38
2022-10-16T08:42:14.438Z,98911.50
2022-10-16T08:43:28.409Z,98922.88
2022-10-16T08:45:04.931Z,98927.09
2022-10-16T08:46:28.007Z,98925.41
2022-10-16T08:47:42.446Z,98924.72
2022-10-16T08:48:49.420Z,98927.00
2022-10-16T08:49:59.768Z,98925.50
2022-10-16T08:51:03.781Z,98932.28
2022-10-16T08:52:13.597Z,98928.25
2022-10-16T08:53:19.987Z,98924.25
2022-10-16T08:54:31.115Z,98930.50
2022-10-16T08:55:39.949Z,98921.19
2022-10-16T08:56:45.486Z,98917.84
2022-10-16T08:57:48.347Z,98918.50
2022-10-16T08:58:55.181Z,98922.25
2022-10-16T09:00:08.251Z,98923.34
2022-10-16T09:01:14.550Z,98916.69
2022-10-16T09:02:27.710Z,98922.75
2022-10-16T09:04:11.460Z,98922.50
2022-10-16T09:05:31.368Z,98927.69
2022-10-16T09:06:45.448Z,98916.75
2022-10-16T09:07:55.667Z,98920.84
2022-10-16T09:09:14.444Z,98918.84
2022-10-16T09:10:26.577Z,98920.66
2022-10-16T09:11:40.740Z,98927.16
2022-10-16T09:12:51.736Z,98924.03
2022-10-16T09:14:01.444Z,98927.69
2022-10-16T09:15:14.368Z,98916.09
2022-10-16T09:16:23.506Z,98923.22
2022-10-16T09:17:34.239Z,98923.22
2022-10-16T09:18:43.247Z,98926.88
2022-10-16T09:19:49.616Z,98920.94
2022-10-16T09:20:56.770Z,98924.75
2022-10-16T09:22:01.489Z,98927.78
2022-10-16T09:23:17.108Z,98927.13
2022-10-16T09:24:26.925Z,98927.50
2022-10-16T09:25:32.215Z,98937.63
2022-10-16T09:26:36.097Z,98934.16
2022-10-16T09:27:41.878Z,98932.53
2022-10-16T09:28:48.438Z,98934.31
2022-10-16T09:29:52.517Z,98938.16
2022-10-16T09:30:58.928Z,98941.28
2022-10-16T09:32:13.095Z,98934.16
2022-10-16T09:33:18.603Z,98936.81
2022-10-16T09:34:30.876Z,98938.09
2022-10-16T09:35:37.951Z,98936.91
2022-10-16T09:36:44.025Z,98941.66
2022-10-16T09:37:49.548Z,98927.22
2022-10-16T09:39:04.768Z,98944.88
2022-10-16T09:40:13.355Z,98942.50
2022-10-16T09:41:20.604Z,98936.47
2022-10-16T09:42:25.467Z,98934.75
2022-10-16T09:43:34.375Z,98938.34
2022-10-16T09:45:44.777Z,98939.59
2022-10-16T09:46:48.771Z,98947.81
2022-10-16T09:47:54.198Z,98949.56
2022-10-16T09:49:03.427Z,98948.63
2022-10-16T09:50:23.276Z,98949.97
2022-10-16T09:51:27.961Z,98952.09
2022-10-16T09:52:32.967Z,98953.16
2022-10-16T09:53:42.017Z,98947.75
2022-10-16T09:54:52.666Z,98958.81
2022-10-16T09:55:55.626Z,98962.94
2022-10-16T09:57:07.578Z,98959.94
2022-10-16T09:58:15.195Z,98956.28
2022-10-16T09:59:20.945Z,98954.44
2022-10-16T10:00:26.229Z,98964.03
2022-10-16T10:01:37.761Z,98955.91
2022-10-16T10:02:40.916Z,98956.91
2022-10-16T10:03:46.249Z,98954.25
2022-10-16T10:04:52.517Z,98953.63
2022-10-16T10:05:59.812Z,98956.91
2022-10-16T10:07:06.036Z,98956.72
2022-10-16T10:08:19.085Z,98957.16
2022-10-16T10:09:24.661Z,98957.41
2022-10-16T10:10:29.125Z,98952.19
2022-10-16T10:11:51.048Z,98955.97
2022-10-16T10:12:54.406Z,98962.81
2022-10-16T10:14:06.758Z,98952.69
2022-10-16T10:15:14.715Z,98951.72
2022-10-16T10:16:26.637Z,98949.97
2022-10-16T10:17:31.229Z,98947.56
2022-10-16T10:18:34.321Z,98944.50
2022-10-16T10:19:40.423Z,98951.06
2022-10-16T10:20:44.327Z,98947.88
2022-10-16T10:21:47.795Z,98946.66
2022-10-16T10:22:51.897Z,98946.28
2022-10-16T10:23:58.216Z,98949.56
2022-10-16T10:25:19.620Z,98952.84
2022-10-16T10:26:24.749Z,98944.25
2022-10-16T10:27:35.686Z,98949.56
2022-10-16T10:28:57.707Z,98945.72
2022-10-16T10:30:05.878Z,98950.19
2022-10-16T10:31:14.504Z,98948.81
2022-10-16T10:32:28.915Z,98946.75
2022-10-16T10:33:45.292Z,98940.44
2022-10-16T10:34:58.618Z,98942.47
2022-10-16T10:36:11.421Z,98945.31
2022-10-16T10:37:26.316Z,98943.28
2022-10-16T10:38:37.276Z,98945.13
2022-10-16T10:39:44.313Z,98946.75
2022-10-16T10:40:53.869Z,98954.72
2022-10-16T10:42:10.007Z,98955.09
2022-10-16T10:43:22.158Z,98949.38
2022-10-16T10:44:35.158Z,98956.09
2022-10-16T10:45:44.310Z,98948.69
2022-10-16T10:46:53.471Z,98952.38
2022-10-16T10:48:13.073Z,98949.72
2022-10-16T10:49:27.382Z,98953.00
2022-10-16T10:50:37.408Z,98952.78
2022-10-16T10:51:49.455Z,98945.66
2022-10-16T10:53:01.443Z,98951.97
2022-10-16T10:54:13.248Z,98954.81
2022-10-16T10:55:25.051Z,98949.72
2022-10-16T10:56:47.836Z,98947.81
2022-10-16T10:58:03.198Z,98944.25
2022-10-16T10:59:43.950Z,98944.81
2022-10-16T11:00:53.716Z,98950.72
2022-10-16T11:01:59.829Z,98949.88
2022-10-16T11:03:12.018Z,98946.41
2022-10-16T11:04:31.198Z,98947.25
2022-10-16T11:05:44.976Z,98941.75
2022-10-16T11:06:50.868Z,98938.69
2022-10-16T11:07:59.637Z,98937.69
2022-10-16T11:09:05.571Z,98936.25
2022-10-16T11:10:15.058Z,98937.06
2022-10-16T11:11:21.567Z,98942.00
2022-10-16T11:12:29.046Z,98939.59
2022-10-16T11:13:36.057Z,98945.16
2022-10-16T11:14:43.486Z,98936.22
2022-10-16T11:17:00.166Z,98941.06
2022-10-16T11:18:08.208Z,98948.06
2022-10-16T11:19:15.199Z,98950.13
2022-10-16T11:20:22.148Z,98943.81
2022-10-16T11:21:30.264Z,98944.63
2022-10-16T11:22:38.487Z,98948.75
2022-10-16T11:23:44.397Z,98945.50
2022-10-16T11:24:51.601Z,98941.84
2022-10-16T11:25:55.874Z,98941.06
2022-10-16T11:27:03.345Z,98939.28
2022-10-16T11:28:12.375Z,98937.66
2022-10-16T11:29:20.657Z,98940.53
2022-10-16T11:30:25.166Z,98950.75
2022-10-16T11:31:33.966Z,98944.69
2022-10-16T11:32:45.365Z,98943.72
2022-10-16T11:33:55.347Z,98941.06
2022-10-16T11:35:03.997Z,98945.78
2022-10-16T11:36:14.556Z,98946.00
2022-10-16T11:37:20.416Z,98946.84
2022-10-16T11:38:29.739Z,98946.88
2022-10-16T11:39:34.294Z,98948.31
2022-10-16T11:40:42.107Z,98948.94
2022-10-16T11:41:50.489Z,98954.25
2022-10-16T11:42:56.461Z,98951.41
2022-10-16T11:44:35.848Z,98955.31
2022-10-16T11:45:43.195Z,98946.06
2022-10-16T11:47:00.915Z,98950.41
2022-10-16T11:48:24.189Z,98944.47
2022-10-16T11:49:30.873Z,98946.13
2022-10-16T11:50:37.569Z,98947.75
2022-10-16T11:51:43.598Z,98947.53
2022-10-16T11:52:52.008Z,98944.06
2022-10-16T11:53:59.415Z,98957.59
2022-10-16T11:55:07.258Z,98944.31
2022-10-16T11:56:15.109Z,98944.31
2022-10-16T11:57:20.998Z,98948.03
2022-10-16T11:58:27.842Z,98933.03
2022-10-16T11:59:34.211Z,98940.00
2022-10-16T12:00:42.876Z,98940.81
2022-10-16T12:01:48.618Z,98938.78
2022-10-16T12:03:01.493Z,98946.94
2022-10-16T12:04:16.290Z,98949.84
2022-10-16T12:05:31.008Z,98945.53
2022-10-16T12:06:39.029Z,98947.56
2022-10-16T12:07:46.834Z,98947.38
2022-10-16T12:08:50.852Z,98951.50
2022-10-16T12:09:53.958Z,98956.00
2022-10-16T12:11:09.320Z,98951.28
2022-10-16T12:12:27.337Z,98954.97
2022-10-16T12:13:35.007Z,98954.34
2022-10-16T12:15:11.166Z,98947.19
2022-10-16T12:16:23.653Z,98950.69
2022-10-16T12:17:28.716Z,98943.94
2022-10-16T12:18:32.763Z,98952.09
2022-10-16T12:19:35.708Z,98952.69
2022-10-16T12:20:46.972Z,98947.72
2022-10-16T12:21:51.965Z,98953.84
2022-10-16T12:22:58.122Z,98950.34
2022-10-16T12:24:02.454Z,98958.34
2022-10-16T12:25:07.454Z,98954.44
2022-10-16T12:26:11.882Z,98952.59
2022-10-16T12:27:25.982Z,98959.53
2022-10-16T12:28:30.894Z,98949.72
2022-10-16T12:29:41.893Z,98965.53
2022-10-16T12:30:53.926Z,98953.06
2022-10-16T12:31:59.535Z,98960.66
2022-10-16T12:33:06.047Z,98963.72
2022-10-16T12:34:24.368Z,98958.22
2022-10-16T12:35:31.368Z,98958.00
2022-10-16T12:36:37.095Z,98956.97
2022-10-16T12:37:41.396Z,98961.94
2022-10-16T12:38:49.859Z,98961.53
2022-10-16T12:39:54.057Z,98968.47
2022-10-16T12:41:01.609Z,98967.47
2022-10-16T12:42:05.947Z,98968.09
2022-10-16T12:43:29.824Z,98967.88
2022-10-16T12:44:37.108Z,98964.63
2022-10-16T12:45:41.200Z,98967.88
2022-10-16T12:46:45.412Z,98975.09
2022-10-16T12:47:51.168Z,98968.31
2022-10-16T12:49:06.569Z,98965.41
2022-10-16T12:50:33.053Z,98973.41
2022-10-16T12:51:39.567Z,98969.72
2022-10-16T12:52:42.610Z,98969.34
2022-10-16T12:53:46.804Z,98967.69
2022-10-16T12:54:50.136Z,98974.44
2022-10-16T12:56:07.936Z,98967.09
2022-10-16T12:57:21.478Z,98967.28
2022-10-16T12:58:53.377Z,98971.19
2022-10-16T13:00:03.906Z,98973.63
2022-10-16T13:01:18.791Z,98977.69
2022-10-16T13:02:51.706Z,98976.22
2022-10-16T13:04:22.655Z,98981.63
2022-10-16T13:05:44.244Z,98983.41
2022-10-16T13:06:54.184Z,98972.84
2022-10-16T13:08:06.217Z,98976.25
2022-10-16T13:09:22.874Z,98974.56